Time;durP1;ratioP1;P1;durP2;ratioP2;P2;SDS_P1;SDS_P2;PMS_P1;PMS_P2;Temp;Humidity;BMP_temperature;BMP_pressure;BME280_temperature;BME280_humidity;BME280_pressure;Samples;Min_cycle;Max_cycle;Signal;HPM_P1;HPM_P2
2021/12/15 00:01:42;;;;;;;58.65;24.77;;;10.40;99.90;;;;;;5038649;28;20051;-66
2021/12/15 00:04:08;;;;;;;46.42;23.80;;;10.20;99.90;;;;;;5039423;28;20487;-66
2021/12/15 00:06:34;;;;;;;59.47;25.30;;;10.10;99.90;;;;;;5038510;28;20041;-66
2021/12/15 00:09:05;;;;;;;48.10;24.75;;;10.20;99.90;;;;;;5040474;28;20041;-66
2021/12/15 00:11:36;;;;;;;56.15;25.65;;;10.40;99.90;;;;;;5039364;28;20411;-67
2021/12/15 00:14:10;;;;;;;59.03;25.58;;;10.30;99.90;;;;;;5039229;28;20120;-67
2021/12/15 00:16:36;;;;;;;55.88;26.83;;;10.10;99.90;;;;;;5039659;28;20077;-67
2021/12/15 00:19:04;;;;;;;56.17;26.08;;;10.20;99.90;;;;;;5040187;28;20450;-67
2021/12/15 00:21:30;;;;;;;50.92;23.63;;;10.20;99.90;;;;;;5040227;28;20399;-67
2021/12/15 00:23:57;;;;;;;53.90;25.20;;;10.30;99.90;;;;;;5040024;28;20049;-67
2021/12/15 00:26:23;;;;;;;56.88;26.70;;;10.20;99.90;;;;;;5039477;28;20034;-67
2021/12/15 00:28:50;;;;;;;53.28;24.88;;;10.30;99.90;;;;;;5040458;28;20050;-67
2021/12/15 00:31:16;;;;;;;62.58;25.75;;;10.10;99.90;;;;;;5038550;28;20116;-67
2021/12/15 00:33:44;;;;;;;59.63;26.10;;;10.30;99.90;;;;;;5038769;28;20123;-67
2021/12/15 00:36:10;;;;;;;51.47;25.27;;;10.30;99.90;;;;;;5038782;28;20053;-67
2021/12/15 00:38:36;;;;;;;49.75;24.05;;;10.10;99.90;;;;;;5040433;28;20038;-67
2021/12/15 00:41:03;;;;;;;53.00;25.77;;;10.30;99.90;;;;;;5038878;28;20091;-67
2021/12/15 00:43:28;;;;;;;50.25;25.08;;;10.20;99.90;;;;;;5039574;28;20051;-68
2021/12/15 00:45:54;;;;;;;52.70;24.88;;;10.40;99.90;;;;;;5039868;28;20112;-67
2021/12/15 00:48:20;;;;;;;58.20;25.63;;;10.40;99.90;;;;;;5038780;28;20038;-67
2021/12/15 00:50:46;;;;;;;49.70;23.58;;;10.40;99.90;;;;;;5037853;28;20492;-67
2021/12/15 00:53:13;;;;;;;51.35;26.08;;;10.20;99.90;;;;;;5040249;28;20042;-67
2021/12/15 00:55:39;;;;;;;57.13;27.05;;;10.30;99.90;;;;;;5038237;28;20057;-67
2021/12/15 00:58:06;;;;;;;53.72;26.13;;;10.20;99.90;;;;;;5037055;28;20041;-67
2021/12/15 01:00:44;;;;;;;49.20;24.42;;;10.30;99.90;;;;;;5036777;28;20049;-67
2021/12/15 01:03:09;;;;;;;54.08;25.85;;;10.40;99.90;;;;;;5036513;28;20128;-67
2021/12/15 01:05:44;;;;;;;50.58;25.35;;;10.40;99.90;;;;;;5037965;28;20081;-68
2021/12/15 01:08:15;;;;;;;55.22;24.58;;;10.30;99.90;;;;;;5036601;28;20064;-67
2021/12/15 01:11:12;;;;;;;54.47;25.25;;;10.40;99.90;;;;;;5036931;28;20041;-67
2021/12/15 01:22:02;;;;;;;53.58;25.10;;;10.40;99.90;;;;;;5038527;28;20050;-67
2021/12/15 01:24:29;;;;;;;55.25;28.48;;;10.40;99.90;;;;;;5037645;28;20041;-67
2021/12/15 01:26:54;;;;;;;53.83;25.80;;;10.30;99.90;;;;;;5038060;28;20093;-68
2021/12/15 01:29:20;;;;;;;55.58;25.63;;;10.40;99.90;;;;;;5037874;28;20072;-68
2021/12/15 01:31:46;;;;;;;52.15;26.00;;;10.40;99.90;;;;;;5038593;28;20072;-66
2021/12/15 01:34:11;;;;;;;57.55;28.25;;;10.50;99.90;;;;;;5038183;28;20042;-67
2021/12/15 01:36:37;;;;;;;57.22;25.90;;;10.40;99.90;;;;;;5038614;28;20080;-67
2021/12/15 01:39:04;;;;;;;57.35;26.67;;;10.40;99.90;;;;;;5038587;28;20061;-67
2021/12/15 01:41:29;;;;;;;61.17;27.60;;;10.50;99.90;;;;;;5036464;28;20510;-67
2021/12/15 01:49:21;;;;;;;60.15;27.25;;;10.50;99.90;;;;;;5038273;28;20129;-67
2021/12/15 01:51:47;;;;;;;58.97;26.15;;;10.50;99.90;;;;;;5037610;28;20048;-67
2021/12/15 01:54:13;;;;;;;61.83;26.92;;;10.50;99.90;;;;;;5001342;28;1029720;-67
2021/12/15 01:56:39;;;;;;;59.45;27.52;;;10.30;99.90;;;;;;5038485;28;20048;-67
2021/12/15 01:59:06;;;;;;;57.65;27.85;;;10.50;99.90;;;;;;5050408;28;20042;-67
2021/12/15 02:01:32;;;;;;;65.10;29.33;;;10.50;99.90;;;;;;5051425;28;20087;-67
2021/12/15 02:03:58;;;;;;;59.63;26.58;;;10.50;99.90;;;;;;5050949;28;20069;-67
2021/12/15 02:06:25;;;;;;;61.42;28.58;;;10.50;99.90;;;;;;5018745;28;20480;-67
2021/12/15 02:08:51;;;;;;;62.45;27.67;;;10.50;99.90;;;;;;5051059;28;20570;-67
2021/12/15 02:11:17;;;;;;;56.00;27.48;;;;;;;;;;5018370;28;20387;-66
2021/12/15 02:13:43;;;;;;;58.45;27.80;;;10.60;99.90;;;;;;5034009;28;20125;-67
2021/12/15 02:16:09;;;;;;;61.33;28.40;;;10.60;99.90;;;;;;5018743;28;20507;-67
2021/12/15 02:18:42;;;;;;;67.03;29.90;;;10.30;99.90;;;;;;5049834;28;20045;-67
2021/12/15 02:21:12;;;;;;;60.08;28.55;;;10.40;99.90;;;;;;5051404;28;20087;-67
2021/12/15 02:23:45;;;;;;;60.58;29.08;;;10.60;99.90;;;;;;5050406;28;20095;-67
2021/12/15 02:26:18;;;;;;;68.15;27.90;;;10.40;99.90;;;;;;5018780;28;20045;-67
2021/12/15 02:28:47;;;;;;;62.53;29.33;;;10.70;99.90;;;;;;5018775;28;20131;-67
2021/12/15 02:31:34;;;;;;;69.30;28.80;;;10.60;99.90;;;;;;5018148;28;20046;-67
2021/12/15 02:39:14;;;;;;;64.72;29.75;;;10.50;99.90;;;;;;5016219;28;20057;-67
2021/12/15 02:41:40;;;;;;;70.90;31.08;;;10.40;99.90;;;;;;5016571;28;20053;-67
2021/12/15 02:44:10;;;;;;;68.90;30.05;;;10.60;99.90;;;;;;5049890;28;20108;-67
2021/12/15 02:46:37;;;;;;;73.25;32.20;;;10.50;99.90;;;;;;5017019;28;20492;-67
2021/12/15 02:49:06;;;;;;;66.93;30.17;;;10.40;99.90;;;;;;5016864;28;20041;-67
2021/12/15 02:51:33;;;;;;;71.57;32.45;;;10.50;99.90;;;;;;5016635;28;20065;-67
2021/12/15 02:53:59;;;;;;;74.68;32.67;;;10.40;99.90;;;;;;5048943;28;20068;-69
2021/12/15 02:56:26;;;;;;;76.15;32.63;;;10.30;99.90;;;;;;5048745;28;20089;-66
2021/12/15 02:58:58;;;;;;;74.38;31.52;;;10.30;99.90;;;;;;5024753;28;20052;-66
2021/12/15 03:01:41;;;;;;;68.43;30.27;;;10.50;99.90;;;;;;5034036;28;20041;-65
2021/12/15 03:04:15;;;;;;;70.85;31.27;;;10.50;99.90;;;;;;5036099;28;20102;-66
2021/12/15 03:06:56;;;;;;;69.85;30.60;;;10.30;99.90;;;;;;5034913;28;20037;-66
2021/12/15 03:17:29;;;;;;;75.32;31.75;;;10.50;99.90;;;;;;5035449;28;20048;-67
2021/12/15 03:19:54;;;;;;;69.20;30.02;;;10.40;99.90;;;;;;5034890;28;20523;-66
2021/12/15 03:22:20;;;;;;;72.57;30.23;;;10.40;99.90;;;;;;5035805;28;20034;-66
2021/12/15 03:24:46;;;;;;;69.28;29.92;;;10.50;99.90;;;;;;5034348;28;20033;-66
2021/12/15 03:27:18;;;;;;;71.63;31.35;;;10.60;99.90;;;;;;5035869;28;20121;-66
2021/12/15 03:37:47;;;;;;;75.82;31.17;;;10.40;99.90;;;;;;5034095;28;20103;-66
2021/12/15 03:40:39;;;;;;;75.40;31.63;;;10.40;99.90;;;;;;5034372;28;20037;-66
2021/12/15 03:43:09;;;;;;;76.13;31.80;;;10.40;99.90;;;;;;5034920;28;20480;-66
2021/12/15 03:45:40;;;;;;;72.60;31.63;;;10.40;99.90;;;;;;5034566;28;20056;-66
2021/12/15 03:48:10;;;;;;;67.57;31.88;;;10.20;99.90;;;;;;5035535;28;20056;-66
2021/12/15 03:50:36;;;;;;;67.72;31.77;;;10.40;99.90;;;;;;5035753;28;20037;-65
2021/12/15 03:53:03;;;;;;;70.50;31.92;;;10.30;99.90;;;;;;5034249;28;20052;-66
2021/12/15 03:55:32;;;;;;;77.65;33.10;;;10.30;99.90;;;;;;5035256;28;20052;-65
2021/12/15 03:58:00;;;;;;;70.13;32.05;;;10.20;99.90;;;;;;5035361;28;20068;-66
2021/12/15 04:00:28;;;;;;;68.35;32.33;;;10.50;99.90;;;;;;5034427;28;20060;-66
2021/12/15 04:02:54;;;;;;;76.75;32.58;;;10.40;99.90;;;;;;5035718;28;20446;-66
2021/12/15 04:05:21;;;;;;;68.45;30.70;;;10.40;99.90;;;;;;5034406;28;20045;-66
2021/12/15 04:07:48;;;;;;;75.97;31.27;;;10.30;99.90;;;;;;5035617;28;20046;-66
2021/12/15 04:10:16;;;;;;;72.13;32.65;;;10.40;99.90;;;;;;5034010;28;20058;-66
2021/12/15 04:12:42;;;;;;;74.88;32.75;;;10.40;99.90;;;;;;5034099;28;20067;-66
2021/12/15 04:15:28;;;;;;;67.68;31.27;;;10.60;99.90;;;;;;5034885;28;20037;-66
2021/12/15 04:18:03;;;;;;;70.18;31.83;;;10.40;99.90;;;;;;5033820;28;20700;-66
2021/12/15 04:20:33;;;;;;;73.18;33.70;;;10.20;99.90;;;;;;5033849;28;20042;-66
2021/12/15 04:22:59;;;;;;;74.32;32.38;;;10.40;99.90;;;;;;5035588;28;20361;-66
2021/12/15 04:25:31;;;;;;;75.43;31.80;;;10.30;99.90;;;;;;5034878;28;20121;-66
2021/12/15 04:28:05;;;;;;;71.05;32.33;;;10.30;99.90;;;;;;5033869;28;20045;-66
2021/12/15 04:30:34;;;;;;;65.68;31.55;;;10.30;99.90;;;;;;5033979;28;20045;-66
2021/12/15 04:33:07;;;;;;;68.35;31.52;;;10.40;99.90;;;;;;5035018;28;20458;-66
2021/12/15 04:35:34;;;;;;;72.88;33.13;;;10.40;99.90;;;;;;5034520;28;20049;-66
2021/12/15 04:38:00;;;;;;;67.22;31.40;;;10.70;99.90;;;;;;5017922;28;20420;-66
2021/12/15 04:40:26;;;;;;;69.43;32.42;;;10.20;99.90;;;;;;5035778;28;20071;-66
2021/12/15 04:42:54;;;;;;;66.80;31.70;;;10.30;99.90;;;;;;5037594;28;20049;-67
2021/12/15 04:45:21;;;;;;;71.97;33.13;;;10.40;99.90;;;;;;5038780;28;20048;-66
2021/12/15 04:47:50;;;;;;;73.80;32.78;;;10.40;99.90;;;;;;5037097;28;20053;-66
2021/12/15 04:50:18;;;;;;;69.10;31.70;;;10.20;99.90;;;;;;5038119;28;20029;-66
2021/12/15 04:52:44;;;;;;;69.93;32.30;;;10.40;99.90;;;;;;5040485;28;20450;-66
2021/12/15 04:55:10;;;;;;;81.38;34.63;;;10.10;99.90;;;;;;5053488;28;20049;-66
2021/12/15 04:57:35;;;;;;;70.28;33.72;;;10.20;99.90;;;;;;5055083;28;20505;-65
2021/12/15 05:00:04;;;;;;;69.80;33.30;;;10.40;99.90;;;;;;5030226;28;20124;-66
2021/12/15 05:02:30;;;;;;;73.28;33.03;;;10.20;99.90;;;;;;5056605;28;20559;-67
2021/12/15 05:04:56;;;;;;;74.80;35.80;;;10.40;99.90;;;;;;5057079;28;20073;-66
2021/12/15 05:07:22;;;;;;;73.07;33.90;;;10.30;99.90;;;;;;5058377;28;20461;-66
2021/12/15 05:09:50;;;;;;;77.07;34.30;;;10.30;99.90;;;;;;5058815;28;20041;-66
2021/12/15 05:12:20;;;;;;;71.05;33.72;;;10.40;99.90;;;;;;5057653;28;20053;-66
2021/12/15 05:14:46;;;;;;;75.47;34.00;;;10.20;99.90;;;;;;5056788;28;20053;-66
2021/12/15 05:17:11;;;;;;;76.07;35.10;;;10.20;99.90;;;;;;5057704;28;20037;-66
2021/12/15 05:19:37;;;;;;;68.97;33.72;;;10.40;99.90;;;;;;5058730;28;20036;-66
2021/12/15 05:22:05;;;;;;;71.72;34.05;;;10.30;99.90;;;;;;5057836;28;20048;-66
2021/12/15 05:24:30;;;;;;;76.07;34.38;;;10.30;99.90;;;;;;5058820;28;20560;-66
2021/12/15 05:27:07;;;;;;;75.35;33.80;;;10.20;99.90;;;;;;5058131;28;20033;-66
2021/12/15 05:29:33;;;;;;;72.35;33.08;;;10.30;99.90;;;;;;5056778;28;20037;-66
2021/12/15 05:31:59;;;;;;;70.60;34.35;;;10.30;99.90;;;;;;5049835;28;20032;-66
2021/12/15 05:34:25;;;;;;;68.43;32.72;;;10.30;99.90;;;;;;5056329;28;20040;-67
2021/12/15 05:36:52;;;;;;;75.68;34.50;;;10.30;99.90;;;;;;5059190;28;20086;-67
2021/12/15 05:39:20;;;;;;;69.00;33.22;;;10.30;99.90;;;;;;5041120;28;20041;-67
2021/12/15 05:41:46;;;;;;;78.78;32.25;;;10.40;99.90;;;;;;5036644;28;20052;-68
2021/12/15 05:44:12;;;;;;;71.28;33.42;;;10.30;99.90;;;;;;5055050;28;20036;-67
2021/12/15 05:46:38;;;;;;;68.95;32.97;;;;;;;;;;5055395;28;20043;-67
2021/12/15 05:49:05;;;;;;;68.25;33.15;;;10.20;99.90;;;;;;5055594;28;20044;-66
2021/12/15 05:51:31;;;;;;;73.20;32.78;;;10.20;99.90;;;;;;5054027;28;20041;-66
2021/12/15 05:53:57;;;;;;;65.40;32.00;;;;;;;;;;5053246;28;20109;-66
2021/12/15 05:56:23;;;;;;;68.40;33.15;;;10.30;99.90;;;;;;5048613;28;22247;-67
2021/12/15 05:58:48;;;;;;;62.60;30.65;;;10.30;99.90;;;;;;5025223;28;20052;-68
2021/12/15 06:01:14;;;;;;;70.30;33.00;;;10.30;99.90;;;;;;5033780;28;20048;-67
2021/12/15 06:03:41;;;;;;;63.10;30.92;;;10.20;99.90;;;;;;5033928;28;20041;-68
2021/12/15 06:06:07;;;;;;;68.28;33.10;;;;;;;;;;5049335;28;20087;-65
2021/12/15 06:08:32;;;;;;;71.90;32.75;;;10.30;99.90;;;;;;5032454;28;20538;-66
2021/12/15 06:10:58;;;;;;;67.18;30.77;;;10.30;99.90;;;;;;5033564;28;20037;-67
2021/12/15 06:13:26;;;;;;;67.70;31.80;;;;;;;;;;5048400;28;20084;-66
2021/12/15 06:15:52;;;;;;;75.07;32.80;;;;;;;;;;5026134;28;20087;-65
2021/12/15 06:18:20;;;;;;;70.63;33.00;;;10.40;99.90;;;;;;5025515;28;20056;-65
2021/12/15 06:20:48;;;;;;;75.97;30.67;;;10.30;99.90;;;;;;5042354;28;20041;-67
2021/12/15 06:23:19;;;;;;;66.70;32.13;;;10.20;99.90;;;;;;5027413;28;20101;-66
2021/12/15 06:25:48;;;;;;;63.33;30.85;;;10.20;99.90;;;;;;5030557;28;20041;-66
2021/12/15 06:28:14;;;;;;;69.20;32.00;;;10.30;99.90;;;;;;5033778;28;20084;-67
2021/12/15 06:30:40;;;;;;;71.32;32.58;;;10.20;99.90;;;;;;5033151;28;20033;-66
2021/12/15 06:33:06;;;;;;;68.97;32.92;;;10.30;99.90;;;;;;5033157;28;20034;-67
2021/12/15 06:35:33;;;;;;;64.47;30.17;;;10.30;99.90;;;;;;5033413;28;20124;-67
2021/12/15 06:37:59;;;;;;;60.55;31.52;;;10.30;99.90;;;;;;5036671;28;20118;-67
2021/12/15 06:40:25;;;;;;;62.42;30.25;;;10.20;99.90;;;;;;5053648;28;20115;-66
2021/12/15 06:42:51;;;;;;;56.45;29.50;;;10.20;99.90;;;;;;5050966;28;20033;-67
2021/12/15 06:45:20;;;;;;;65.95;30.88;;;10.30;99.90;;;;;;5050463;28;20100;-65
2021/12/15 06:58:43;;;;;;;57.97;28.73;;;10.30;99.90;;;;;;5020434;28;20057;-67
2021/12/15 07:01:10;;;;;;;66.05;30.65;;;10.30;99.90;;;;;;5032040;28;20590;-66
2021/12/15 07:03:36;;;;;;;64.97;28.50;;;;;;;;;;5031004;28;20104;-64
2021/12/15 07:06:02;;;;;;;58.42;28.27;;;10.30;99.90;;;;;;5031856;28;20049;-66
2021/12/15 07:08:28;;;;;;;59.60;28.75;;;10.30;99.90;;;;;;5031944;28;20049;-66
2021/12/15 07:10:56;;;;;;;57.55;27.90;;;10.30;99.90;;;;;;5031823;28;20042;-66
2021/12/15 07:13:25;;;;;;;61.42;27.58;;;10.60;99.90;;;;;;5033573;28;20521;-65
2021/12/15 07:15:59;;;;;;;61.47;28.08;;;10.20;99.90;;;;;;5037689;28;20094;-66
2021/12/15 07:18:38;;;;;;;55.45;26.33;;;10.30;99.90;;;;;;5033179;28;20107;-66
2021/12/15 07:21:09;;;;;;;55.25;26.88;;;10.30;99.90;;;;;;5014685;28;20045;-66
2021/12/15 07:23:35;;;;;;;59.42;28.00;;;10.20;99.90;;;;;;5031247;28;20116;-65
2021/12/15 07:26:01;;;;;;;58.00;26.45;;;10.30;99.90;;;;;;5031473;28;20048;-66
2021/12/15 07:28:27;;;;;;;56.05;26.63;;;10.40;99.90;;;;;;5030571;28;20041;-66
2021/12/15 07:30:54;;;;;;;65.88;30.05;;;10.30;99.90;;;;;;5031194;28;20372;-66
2021/12/15 07:33:20;;;;;;;57.38;27.80;;;10.40;99.90;;;;;;5032472;28;20048;-66
2021/12/15 07:35:47;;;;;;;61.63;26.75;;;;;;;;;;5031677;28;20033;-66
2021/12/15 07:38:13;;;;;;;58.60;28.63;;;;;;;;;;5031818;28;20403;-64
2021/12/15 07:40:40;;;;;;;61.65;27.95;;;10.10;99.90;;;;;;5031800;28;20041;-65
2021/12/15 07:43:12;;;;;;;51.92;26.75;;;10.40;99.90;;;;;;5031270;28;20037;-65
2021/12/15 07:45:50;;;;;;;51.03;26.42;;;10.30;99.90;;;;;;5030774;28;20046;-65
2021/12/15 07:48:19;;;;;;;49.45;25.20;;;10.30;99.90;;;;;;5026695;28;20128;-65
2021/12/15 07:50:50;;;;;;;56.20;27.15;;;10.30;99.90;;;;;;5030419;28;20133;-65
2021/12/15 07:53:18;;;;;;;54.13;26.10;;;10.40;99.90;;;;;;5032023;28;20132;-65
2021/12/15 07:55:44;;;;;;;55.05;26.38;;;10.20;99.90;;;;;;5031450;28;20068;-65
2021/12/15 07:58:10;;;;;;;57.65;26.52;;;10.10;99.90;;;;;;5031725;28;20445;-65
2021/12/15 08:00:40;;;;;;;53.92;26.58;;;10.30;99.90;;;;;;5039739;28;20440;-65
2021/12/15 08:03:06;;;;;;;52.00;25.58;;;10.30;99.90;;;;;;5041102;28;20037;-65
2021/12/15 08:05:32;;;;;;;47.75;24.33;;;10.30;99.90;;;;;;5031845;28;20064;-65
2021/12/15 08:07:58;;;;;;;51.78;26.33;;;;;;;;;;5037589;28;20084;-66
2021/12/15 08:10:24;;;;;;;59.50;26.55;;;;;;;;;;5028597;28;20080;-64
2021/12/15 08:12:50;;;;;;;58.50;27.02;;;;;;;;;;5025556;28;20547;-65
2021/12/15 08:15:17;;;;;;;54.95;26.50;;;10.30;99.90;;;;;;5027986;28;20404;-64
2021/12/15 08:17:48;;;;;;;53.88;26.85;;;10.20;99.90;;;;;;5035182;28;20067;-65
2021/12/15 08:20:15;;;;;;;50.67;26.02;;;10.30;99.90;;;;;;5033214;28;20215;-66
2021/12/15 08:22:41;;;;;;;49.95;26.15;;;10.30;99.90;;;;;;5021076;28;20546;-64
2021/12/15 08:25:09;;;;;;;49.05;24.30;;;10.40;99.90;;;;;;5036549;28;20040;-66
2021/12/15 08:27:35;;;;;;;50.15;25.55;;;10.30;99.90;;;;;;5039102;28;20446;-64
2021/12/15 08:30:04;;;;;;;56.60;26.85;;;10.40;99.90;;;;;;5034201;28;20037;-67
2021/12/15 08:32:30;;;;;;;55.30;24.55;;;10.30;99.90;;;;;;5037698;28;20077;-65
2021/12/15 08:34:55;;;;;;;53.47;26.02;;;10.40;99.90;;;;;;5032861;28;20529;-66
2021/12/15 08:37:21;;;;;;;56.08;27.83;;;10.30;99.90;;;;;;5032848;28;20041;-65
2021/12/15 08:39:47;;;;;;;51.65;24.85;;;10.40;99.90;;;;;;5036670;28;20040;-65
2021/12/15 08:42:13;;;;;;;56.55;26.80;;;10.40;99.90;;;;;;5032752;28;20073;-65
2021/12/15 08:44:39;;;;;;;51.03;24.52;;;;;;;;;;5031680;28;20475;-67
2021/12/15 08:47:07;;;;;;;55.28;25.83;;;10.30;99.90;;;;;;5029074;28;20041;-68
2021/12/15 08:49:33;;;;;;;47.28;25.05;;;10.30;99.90;;;;;;5034272;28;20052;-67
2021/12/15 08:52:00;;;;;;;57.33;25.33;;;10.40;99.90;;;;;;5039340;28;20078;-66
2021/12/15 08:54:25;;;;;;;54.97;24.58;;;10.40;99.90;;;;;;5033452;28;20080;-67
2021/12/15 08:56:52;;;;;;;50.30;25.88;;;10.30;99.90;;;;;;5035779;28;20088;-66
2021/12/15 08:59:19;;;;;;;53.40;24.30;;;10.40;99.90;;;;;;5037530;28;20479;-66
2021/12/15 09:01:45;;;;;;;50.08;25.73;;;10.30;99.90;;;;;;5036322;28;20164;-66
2021/12/15 09:04:12;;;;;;;51.30;24.60;;;10.30;99.90;;;;;;5034164;28;20042;-66
2021/12/15 09:06:39;;;;;;;47.17;25.77;;;10.40;99.90;;;;;;5040236;28;20121;-67
2021/12/15 09:09:07;;;;;;;48.20;25.75;;;10.40;99.90;;;;;;5022694;28;20038;-67
2021/12/15 09:11:33;;;;;;;54.60;24.98;;;10.50;99.90;;;;;;5039733;28;20400;-67
2021/12/15 09:14:01;;;;;;;48.92;23.08;;;10.50;99.90;;;;;;5007395;28;20065;-67
2021/12/15 09:16:31;;;;;;;52.47;24.63;;;10.70;99.90;;;;;;5038044;28;20079;-67
2021/12/15 09:18:59;;;;;;;51.10;24.35;;;10.50;99.90;;;;;;5034995;28;20053;-67
2021/12/15 09:21:27;;;;;;;49.40;23.52;;;10.60;99.90;;;;;;5035164;28;20395;-67
2021/12/15 09:23:53;;;;;;;50.22;23.10;;;10.60;99.90;;;;;;5033752;28;20045;-67
2021/12/15 09:26:20;;;;;;;45.00;23.42;;;10.60;99.90;;;;;;5034518;28;20096;-65
2021/12/15 09:28:47;;;;;;;51.35;23.02;;;10.60;99.90;;;;;;5033201;28;20041;-66
2021/12/15 09:31:14;;;;;;;50.10;24.23;;;10.60;99.90;;;;;;5025546;28;20041;-68
2021/12/15 09:33:41;;;;;;;42.45;22.42;;;10.70;99.90;;;;;;5035263;28;20511;-68
2021/12/15 09:36:08;;;;;;;44.25;22.35;;;10.60;99.90;;;;;;5030081;28;20041;-66
2021/12/15 09:38:34;;;;;;;40.22;20.33;;;10.60;99.90;;;;;;5034100;28;20041;-67
2021/12/15 09:41:02;;;;;;;39.85;21.15;;;10.70;99.90;;;;;;5031869;28;20041;-66
2021/12/15 09:43:30;;;;;;;41.83;21.73;;;10.70;99.90;;;;;;5032824;28;20056;-67
2021/12/15 09:46:30;;;;;;;43.03;22.10;;;10.60;99.90;;;;;;5032143;28;20068;-66
2021/12/15 10:03:01;;;;;;;48.80;21.50;;;10.80;99.90;;;;;;5027347;28;20483;-66
2021/12/15 10:05:12;;;;;;;39.88;21.13;;;10.80;99.90;;;;;;5028036;28;20045;-67
2021/12/15 10:10:45;;;;;;;47.38;22.45;;;10.80;99.90;;;;;;5031303;28;20463;-66
2021/12/15 10:18:38;;;;;;;42.70;19.70;;;10.90;99.90;;;;;;5042737;28;20045;-68
2021/12/15 10:21:05;;;;;;;41.00;20.42;;;11.00;99.90;;;;;;5027904;28;20049;-67
2021/12/15 10:23:37;;;;;;;36.90;18.05;;;11.20;99.90;;;;;;5042061;28;20466;-66
2021/12/15 10:26:05;;;;;;;32.92;17.75;;;11.00;99.90;;;;;;5016982;28;20467;-67
2021/12/15 10:28:33;;;;;;;37.15;17.88;;;11.00;99.90;;;;;;5043386;28;20111;-67
2021/12/15 10:31:12;;;;;;;34.15;17.88;;;11.00;99.90;;;;;;5037819;28;20124;-67
2021/12/15 10:33:46;;;;;;;36.42;15.50;;;11.10;99.90;;;;;;5022013;28;20092;-67
2021/12/15 10:36:25;;;;;;;30.53;15.23;;;11.10;99.90;;;;;;5030396;28;20080;-66
2021/12/15 10:39:00;;;;;;;33.08;16.00;;;11.30;99.90;;;;;;5031163;28;20441;-66
2021/12/15 10:41:39;;;;;;;26.40;13.10;;;11.40;99.90;;;;;;5033255;28;20053;-67
2021/12/15 10:44:21;;;;;;;21.90;12.55;;;11.20;99.90;;;;;;5043300;28;20041;-65
2021/12/15 10:46:57;;;;;;;25.13;13.23;;;11.30;99.90;;;;;;5037217;28;20086;-67
2021/12/15 10:49:26;;;;;;;25.38;13.27;;;11.30;99.90;;;;;;5031947;28;20068;-66
2021/12/15 10:52:01;;;;;;;21.08;11.13;;;11.40;99.90;;;;;;5032558;28;20050;-67
2021/12/15 10:54:36;;;;;;;22.67;11.90;;;11.30;99.90;;;;;;5032807;28;20057;-67
2021/12/15 10:57:11;;;;;;;25.25;12.50;;;11.30;99.90;;;;;;5031224;28;20424;-67
2021/12/15 10:59:48;;;;;;;27.17;13.43;;;11.00;99.90;;;;;;5030687;28;20081;-67
2021/12/15 11:02:20;;;;;;;24.00;11.90;;;11.20;99.90;;;;;;5030669;28;20048;-66
2021/12/15 11:04:53;;;;;;;31.20;13.05;;;11.20;99.90;;;;;;5031190;28;20044;-67
2021/12/15 11:07:38;;;;;;;25.58;12.75;;;11.10;99.90;;;;;;5034753;28;20029;-65
2021/12/15 11:10:13;;;;;;;23.67;11.70;;;11.10;99.90;;;;;;5039218;28;20037;-65
2021/12/15 11:12:45;;;;;;;24.38;11.60;;;11.10;99.90;;;;;;5038036;28;20087;-63
2021/12/15 11:15:23;;;;;;;23.20;11.50;;;11.10;99.90;;;;;;5040130;28;20055;-66
2021/12/15 11:17:58;;;;;;;26.70;12.43;;;11.00;99.90;;;;;;5025452;28;20100;-65
2021/12/15 11:20:24;;;;;;;24.90;11.73;;;;;;;;;;5033969;28;20049;-64
2021/12/15 11:23:03;;;;;;;20.73;10.68;;;11.00;99.90;;;;;;5022605;28;20518;-65
2021/12/15 11:25:50;;;;;;;24.42;10.88;;;10.90;99.90;;;;;;5029039;28;20495;-67
2021/12/15 11:28:23;;;;;;;24.20;10.52;;;11.30;99.90;;;;;;5029072;28;20438;-65
2021/12/15 11:31:09;;;;;;;25.95;11.00;;;11.10;99.90;;;;;;5030972;28;20700;-65
2021/12/15 11:33:48;;;;;;;21.85;10.63;;;11.10;99.90;;;;;;5027397;28;20064;-65
2021/12/15 11:36:18;;;;;;;20.52;11.63;;;11.10;99.90;;;;;;5029793;28;20041;-65
2021/12/15 11:38:48;;;;;;;21.85;12.30;;;11.00;99.90;;;;;;5043607;28;20511;-66
2021/12/15 11:41:39;;;;;;;25.50;12.85;;;11.00;99.90;;;;;;5042260;28;20071;-66
2021/12/15 11:44:12;;;;;;;25.83;12.68;;;11.10;99.90;;;;;;5041254;28;20049;-66
2021/12/15 11:46:51;;;;;;;26.00;11.77;;;11.00;99.90;;;;;;5042463;28;20083;-64
2021/12/15 11:49:32;;;;;;;25.70;12.75;;;11.20;99.90;;;;;;5044097;28;20040;-66
2021/12/15 11:52:06;;;;;;;24.90;12.00;;;11.20;99.90;;;;;;5045124;28;20047;-65
2021/12/15 11:54:37;;;;;;;25.93;12.03;;;11.20;99.90;;;;;;5047635;28;20043;-65
2021/12/15 11:57:22;;;;;;;23.30;12.25;;;11.50;99.90;;;;;;5043612;28;20050;-62
2021/12/15 11:59:51;;;;;;;33.60;13.25;;;11.30;99.90;;;;;;5035685;28;20419;-65
2021/12/15 12:02:20;;;;;;;23.10;11.35;;;11.20;99.90;;;;;;5031807;28;20038;-67
2021/12/15 12:04:48;;;;;;;25.10;13.07;;;11.40;99.90;;;;;;5043432;28;20059;-64
2021/12/15 12:07:27;;;;;;;25.77;12.15;;;11.20;99.90;;;;;;5042429;28;20675;-65
2021/12/15 12:10:06;;;;;;;25.08;10.95;;;11.20;99.90;;;;;;5040571;28;20451;-65
2021/12/15 12:12:39;;;;;;;26.15;11.52;;;11.30;99.90;;;;;;5045234;28;20112;-65
2021/12/15 12:15:13;;;;;;;23.95;11.30;;;11.30;99.90;;;;;;5038284;28;20048;-65
2021/12/15 12:17:42;;;;;;;29.55;12.05;;;11.40;99.90;;;;;;5037485;28;20099;-66
2021/12/15 12:20:08;;;;;;;21.30;10.80;;;;;;;;;;5034688;28;20098;-65
2021/12/15 12:22:36;;;;;;;20.80;9.75;;;11.20;99.90;;;;;;5034332;28;20041;-66
2021/12/15 12:25:08;;;;;;;23.48;10.70;;;11.50;99.90;;;;;;5038266;28;20526;-66
2021/12/15 12:27:35;;;;;;;17.65;9.38;;;11.20;99.90;;;;;;5042085;28;20084;-63
2021/12/15 12:30:11;;;;;;;20.92;9.73;;;11.20;99.90;;;;;;5037959;28;20053;-66
2021/12/15 12:32:38;;;;;;;20.23;9.20;;;11.20;99.90;;;;;;5016764;28;20415;-67
2021/12/15 12:35:07;;;;;;;26.17;9.35;;;11.20;99.90;;;;;;5042571;28;20090;-67
2021/12/15 12:37:33;;;;;;;18.73;9.07;;;;;;;;;;5032845;28;20426;-66
2021/12/15 12:40:04;;;;;;;20.77;9.23;;;;;;;;;;5033506;28;20132;-66
2021/12/15 12:42:38;;;;;;;20.83;9.52;;;11.20;99.90;;;;;;5035311;28;20049;-67
2021/12/15 12:45:19;;;;;;;18.70;8.20;;;11.00;99.90;;;;;;5031580;28;20042;-66
2021/12/15 12:48:11;;;;;;;21.30;7.93;;;11.00;99.90;;;;;;5039887;28;20403;-66
2021/12/15 12:59:26;;;;;;;18.75;8.95;;;11.10;99.90;;;;;;5030755;28;20046;-68
2021/12/15 13:01:52;;;;;;;19.83;9.05;;;;;;;;;;5029609;28;20511;-66
2021/12/15 13:04:19;;;;;;;24.13;8.95;;;;;;;;;;5031101;28;20115;-67
2021/12/15 13:06:45;;;;;;;17.70;8.13;;;11.20;99.90;;;;;;5030787;28;20763;-65
2021/12/15 13:09:16;;;;;;;16.60;8.65;;;11.20;99.90;;;;;;5030608;28;20055;-68
2021/12/15 13:11:47;;;;;;;19.67;7.82;;;11.10;99.90;;;;;;5030401;28;20121;-65
2021/12/15 13:14:33;;;;;;;15.48;7.57;;;11.10;99.90;;;;;;5046364;28;20110;-66
2021/12/15 13:17:03;;;;;;;22.17;7.88;;;11.00;99.90;;;;;;5029919;28;20045;-67
2021/12/15 13:19:33;;;;;;;17.95;7.13;;;11.00;99.90;;;;;;5029664;28;20054;-66
2021/12/15 13:30:48;;;;;;;20.30;7.30;;;11.00;99.90;;;;;;5028861;28;20061;-69
2021/12/15 13:33:39;;;;;;;20.80;7.43;;;11.00;99.90;;;;;;5036233;28;20055;-66
2021/12/15 13:36:05;;;;;;;15.45;6.28;;;;;;;;;;5037539;28;20060;-63
2021/12/15 13:38:34;;;;;;;19.73;7.03;;;11.00;99.90;;;;;;5042229;28;20392;-62
2021/12/15 13:41:13;;;;;;;18.02;6.65;;;11.00;99.90;;;;;;5041100;28;20407;-63
2021/12/15 13:44:17;;;;;;;21.98;8.25;;;11.10;99.90;;;;;;5025555;28;20107;-62
2021/12/15 13:46:51;;;;;;;12.73;6.22;;;11.00;99.90;;;;;;5013261;28;20577;-63
2021/12/15 13:49:46;;;;;;;18.52;7.07;;;10.90;99.90;;;;;;5037005;28;20057;-64
2021/12/15 13:52:35;;;;;;;16.73;7.25;;;10.80;99.90;;;;;;5040693;28;20060;-63
2021/12/15 13:55:09;;;;;;;12.02;5.60;;;10.90;99.90;;;;;;5034195;28;20132;-65
2021/12/15 13:57:46;;;;;;;15.75;6.03;;;11.00;99.90;;;;;;5033319;28;20065;-64
2021/12/15 14:00:23;;;;;;;10.40;5.90;;;10.90;99.90;;;;;;5032278;28;20392;-63
2021/12/15 14:02:57;;;;;;;10.68;5.47;;;10.90;99.90;;;;;;5040396;28;20047;-62
2021/12/15 14:05:28;;;;;;;13.63;5.00;;;10.90;99.90;;;;;;5039981;28;20034;-64
2021/12/15 14:08:01;;;;;;;17.00;5.00;;;11.00;99.90;;;;;;5037234;28;20045;-65
2021/12/15 14:10:27;;;;;;;9.63;5.20;;;;;;;;;;5028610;28;20045;-63
2021/12/15 14:12:58;;;;;;;7.97;4.43;;;10.90;99.90;;;;;;5029220;28;20056;-61
2021/12/15 14:15:35;;;;;;;6.30;3.88;;;10.90;99.90;;;;;;5034848;28;20048;-62